createdAt,value
2022-09-14T00:00:13.088Z,15.67
2022-09-14T00:03:14.888Z,15.48
2022-09-14T00:06:19.096Z,15.20
2022-09-14T00:09:24.938Z,15.06
2022-09-14T00:12:28.331Z,15.37
2022-09-14T00:15:34.861Z,15.35
2022-09-14T00:18:38.079Z,14.90
2022-09-14T00:21:40.181Z,14.68
2022-09-14T00:24:42.090Z,14.70
2022-09-14T00:27:44.948Z,15.00
2022-09-14T00:30:48.095Z,15.21
2022-09-14T00:33:51.806Z,15.26
2022-09-14T00:36:55.337Z,15.35
2022-09-14T00:39:57.276Z,15.51
2022-09-14T00:43:01.619Z,15.66
2022-09-14T00:46:05.070Z,15.78
2022-09-14T00:49:08.812Z,15.88
2022-09-14T00:52:14.804Z,15.94
2022-09-14T00:55:21.754Z,15.96
2022-09-14T00:58:23.851Z,15.96
2022-09-14T01:01:29.083Z,16.03
2022-09-14T01:04:31.376Z,16.02
2022-09-14T01:07:43.126Z,16.08
2022-09-14T01:10:57.242Z,16.10
2022-09-14T01:14:03.351Z,16.07
2022-09-14T01:17:12.609Z,16.03
2022-09-14T01:20:19.386Z,15.96
2022-09-14T01:23:27.303Z,15.79
2022-09-14T01:26:44.878Z,15.56
2022-09-14T01:29:51.511Z,15.16
2022-09-14T01:32:55.115Z,15.00
2022-09-14T01:36:00.813Z,15.21
2022-09-14T01:39:03.383Z,15.29
2022-09-14T01:42:06.833Z,15.44
2022-09-14T01:45:13.962Z,15.57
2022-09-14T01:48:22.740Z,15.59
2022-09-14T01:51:29.656Z,15.32
2022-09-14T01:54:34.212Z,15.37
2022-09-14T01:57:39.075Z,15.37
2022-09-14T02:00:43.915Z,15.51
2022-09-14T02:03:48.003Z,15.59
2022-09-14T02:06:50.506Z,15.64
2022-09-14T02:09:54.590Z,15.63
2022-09-14T02:12:56.782Z,15.07
2022-09-14T02:16:01.165Z,14.86
2022-09-14T02:19:04.411Z,14.84
2022-09-14T02:22:07.091Z,14.82
2022-09-14T02:25:08.887Z,14.95
2022-09-14T02:28:10.669Z,15.18
2022-09-14T02:31:19.839Z,15.30
2022-09-14T02:34:28.170Z,15.36
2022-09-14T02:37:35.513Z,15.47
2022-09-14T02:40:43.738Z,15.07
2022-09-14T02:43:49.321Z,14.78
2022-09-14T02:46:58.516Z,14.75
2022-09-14T02:50:05.416Z,14.76
2022-09-14T02:53:12.649Z,14.96
2022-09-14T02:56:15.162Z,15.16
2022-09-14T02:59:16.873Z,15.26
2022-09-14T03:02:23.606Z,15.21
2022-09-14T03:05:25.706Z,14.92
2022-09-14T03:08:28.475Z,14.83
2022-09-14T03:11:30.347Z,14.86
2022-09-14T03:14:34.443Z,14.77
2022-09-14T03:17:38.924Z,14.98
2022-09-14T03:20:40.728Z,15.16
2022-09-14T03:23:44.855Z,15.30
2022-09-14T03:26:48.147Z,15.39
2022-09-14T03:29:51.901Z,15.50
2022-09-14T03:32:57.707Z,15.56
2022-09-14T03:36:00.161Z,15.59
2022-09-14T03:39:02.993Z,15.66
2022-09-14T03:42:07.772Z,15.73
2022-09-14T03:45:11.716Z,15.76
2022-09-14T03:48:14.805Z,15.76
2022-09-14T03:51:16.561Z,15.68
2022-09-14T03:54:26.346Z,15.50
2022-09-14T03:57:28.143Z,15.64
2022-09-14T04:00:31.370Z,15.69
2022-09-14T04:03:36.291Z,15.76
2022-09-14T04:06:38.111Z,15.78
2022-09-14T04:09:39.764Z,15.77
2022-09-14T04:12:42.715Z,15.81
2022-09-14T04:15:44.699Z,15.81
2022-09-14T04:18:48.007Z,15.83
2022-09-14T04:21:51.435Z,15.87
2022-09-14T04:24:53.597Z,15.86
2022-09-14T04:28:16.828Z,15.83
2022-09-14T04:31:18.076Z,15.84
2022-09-14T04:34:23.023Z,15.84
2022-09-14T04:37:24.790Z,15.86
2022-09-14T04:40:26.852Z,15.83
2022-09-14T04:43:28.879Z,15.85
2022-09-14T04:46:31.733Z,15.82
2022-09-14T04:49:35.936Z,15.73
2022-09-14T04:52:40.329Z,15.77
2022-09-14T04:55:42.146Z,15.78
2022-09-14T04:58:51.199Z,15.81
2022-09-14T05:01:54.478Z,15.84
2022-09-14T05:04:57.706Z,15.86
2022-09-14T05:07:59.633Z,15.89
2022-09-14T05:11:01.413Z,15.92
2022-09-14T05:14:04.919Z,15.91
2022-09-14T05:17:06.919Z,15.93
2022-09-14T05:20:16.724Z,15.94
2022-09-14T05:23:18.591Z,15.92
2022-09-14T05:26:21.041Z,15.82
2022-09-14T05:29:23.613Z,15.89
2022-09-14T05:32:26.293Z,15.95
2022-09-14T05:35:29.715Z,15.97
2022-09-14T05:38:31.902Z,15.94
2022-09-14T05:41:34.944Z,15.98
2022-09-14T05:44:37.805Z,16.01
2022-09-14T05:47:39.553Z,16.07
2022-09-14T05:50:44.545Z,16.10
2022-09-14T05:53:50.108Z,16.07
2022-09-14T05:56:51.853Z,16.08
2022-09-14T05:59:54.447Z,16.13
2022-09-14T06:02:56.240Z,16.11
2022-09-14T06:06:02.760Z,16.15
2022-09-14T06:09:05.882Z,16.18
2022-09-14T06:12:10.746Z,16.17
2022-09-14T06:15:12.991Z,16.25
2022-09-14T06:18:15.358Z,16.28
2022-09-14T06:21:21.445Z,16.30
2022-09-14T06:24:24.430Z,16.32
2022-09-14T06:27:28.415Z,16.35
2022-09-14T06:30:30.232Z,16.39
2022-09-14T06:33:32.083Z,16.32
2022-09-14T06:36:37.331Z,16.29
2022-09-14T06:39:39.948Z,16.30
2022-09-14T06:42:42.306Z,16.30
2022-09-14T06:45:44.260Z,16.13
2022-09-14T06:48:47.215Z,15.73
2022-09-14T06:51:51.754Z,15.80
2022-09-14T06:54:53.633Z,16.03
2022-09-14T06:57:55.362Z,15.89
2022-09-14T07:01:01.070Z,16.12
2022-09-14T07:04:03.714Z,16.14
2022-09-14T07:07:06.934Z,16.12
2022-09-14T07:10:08.836Z,16.10
2022-09-14T07:13:10.566Z,16.15
2022-09-14T07:16:12.859Z,16.32
2022-09-14T07:19:18.546Z,16.43
2022-09-14T07:22:22.004Z,16.51
2022-09-14T07:25:25.334Z,16.58
2022-09-14T07:28:28.250Z,16.62
2022-09-14T07:31:31.397Z,16.67
2022-09-14T07:34:33.235Z,16.71
2022-09-14T07:37:37.014Z,16.76
2022-09-14T07:40:40.026Z,16.75
2022-09-14T07:43:42.640Z,16.64
2022-09-14T07:46:46.488Z,16.72
2022-09-14T07:49:48.227Z,16.73
2022-09-14T07:52:51.533Z,16.75
2022-09-14T07:55:57.946Z,16.75
2022-09-14T07:59:17.618Z,16.77
2022-09-14T08:02:23.132Z,16.80
2022-09-14T08:05:25.118Z,16.94
2022-09-14T08:08:29.694Z,16.99
2022-09-14T08:11:32.148Z,16.96
2022-09-14T08:14:33.896Z,16.96
2022-09-14T08:17:35.584Z,17.01
2022-09-14T08:20:37.372Z,17.12
2022-09-14T08:23:43.418Z,17.11
2022-09-14T08:26:45.282Z,17.13
2022-09-14T08:29:47.133Z,17.15
2022-09-14T08:32:49.496Z,17.19
2022-09-14T08:35:58.902Z,17.19
2022-09-14T08:39:03.732Z,17.23
2022-09-14T08:42:05.757Z,17.31
2022-09-14T08:45:09.723Z,17.33
2022-09-14T08:48:17.658Z,17.32
2022-09-14T08:51:19.561Z,17.35
2022-09-14T08:54:24.242Z,17.39
2022-09-14T08:57:35.046Z,17.41
2022-09-14T09:00:40.150Z,17.47
2022-09-14T09:04:06.149Z,17.59
2022-09-14T09:07:13.113Z,17.64
2022-09-14T09:10:18.940Z,17.72
2022-09-14T09:13:24.414Z,17.95
2022-09-14T09:16:27.914Z,18.11
2022-09-14T09:19:34.517Z,18.17
2022-09-14T09:22:39.848Z,18.34
2022-09-14T09:25:58.885Z,18.50
2022-09-14T09:29:03.627Z,18.69
2022-09-14T09:32:08.608Z,18.96
2022-09-14T09:35:13.757Z,19.04
2022-09-14T09:38:16.741Z,19.22
2022-09-14T09:41:23.887Z,19.33
2022-09-14T09:44:27.037Z,19.45
2022-09-14T09:47:30.738Z,19.51
2022-09-14T09:50:33.033Z,19.62
2022-09-14T09:53:36.942Z,19.73
2022-09-14T09:56:41.108Z,19.89
2022-09-14T09:59:44.592Z,20.28
2022-09-14T10:02:48.459Z,20.43
2022-09-14T10:05:59.548Z,20.69
2022-09-14T10:09:11.769Z,20.90
2022-09-14T10:12:15.845Z,20.95
2022-09-14T10:15:21.291Z,21.29
2022-09-14T10:18:27.076Z,21.52
2022-09-14T10:21:31.141Z,21.60
2022-09-14T10:24:35.914Z,21.62
2022-09-14T10:27:45.243Z,21.79
2022-09-14T10:30:51.842Z,21.91
2022-09-14T10:33:54.650Z,22.20
2022-09-14T10:37:04.296Z,22.25
2022-09-14T10:40:13.480Z,22.36
2022-09-14T10:43:22.444Z,22.43
2022-09-14T10:46:28.660Z,22.54
2022-09-14T10:49:38.784Z,22.70
2022-09-14T10:52:44.816Z,22.88
2022-09-14T10:55:52.431Z,22.98
2022-09-14T10:59:09.543Z,23.11
2022-09-14T11:02:21.896Z,23.15
2022-09-14T11:05:25.843Z,23.14
2022-09-14T11:08:31.412Z,23.13
2022-09-14T11:11:41.043Z,23.44
2022-09-14T11:14:48.827Z,23.60
2022-09-14T11:18:02.696Z,23.76
2022-09-14T11:21:10.527Z,23.84
2022-09-14T11:24:17.658Z,23.84
2022-09-14T11:27:25.292Z,23.96
2022-09-14T11:30:30.866Z,23.99
2022-09-14T11:33:36.462Z,24.00
2022-09-14T11:36:41.352Z,24.02
2022-09-14T11:39:46.076Z,23.98
2022-09-14T11:42:51.723Z,23.98
2022-09-14T11:45:56.259Z,23.89
2022-09-14T11:49:05.072Z,23.70
2022-09-14T11:52:13.578Z,23.57
2022-09-14T11:55:17.312Z,23.65
2022-09-14T11:58:20.800Z,23.56
2022-09-14T12:01:27.240Z,23.73
2022-09-14T12:04:30.671Z,23.66
2022-09-14T12:07:51.207Z,23.67
2022-09-14T12:11:04.935Z,23.71
2022-09-14T12:14:15.140Z,23.74
2022-09-14T12:17:38.419Z,23.87
2022-09-14T12:20:46.039Z,24.10
2022-09-14T12:23:49.988Z,24.13
2022-09-14T12:26:52.292Z,24.14
2022-09-14T12:29:54.929Z,24.00
2022-09-14T12:32:59.386Z,23.98
2022-09-14T12:36:03.382Z,23.97
2022-09-14T12:39:07.275Z,23.98
2022-09-14T12:42:25.879Z,24.22
2022-09-14T12:45:46.487Z,24.40
2022-09-14T12:48:55.442Z,24.55
2022-09-14T12:52:02.768Z,24.72
2022-09-14T12:55:16.027Z,24.73
2022-09-14T12:58:24.094Z,24.75
2022-09-14T13:01:30.629Z,24.97
2022-09-14T13:04:35.893Z,25.16
2022-09-14T13:07:39.431Z,25.18
2022-09-14T13:10:45.050Z,25.19
2022-09-14T13:13:48.906Z,25.22
2022-09-14T13:16:52.467Z,25.08
2022-09-14T13:19:54.867Z,25.08
2022-09-14T13:22:58.158Z,24.85
2022-09-14T13:26:00.360Z,24.69
2022-09-14T13:29:02.568Z,24.56
2022-09-14T13:32:06.333Z,24.42
2022-09-14T13:35:16.114Z,24.28
2022-09-14T13:38:22.815Z,24.23
2022-09-14T13:41:25.446Z,24.15
2022-09-14T13:44:33.694Z,24.19
2022-09-14T13:47:39.118Z,24.16
2022-09-14T13:50:44.433Z,24.26
2022-09-14T13:53:48.556Z,24.31
2022-09-14T13:57:05.459Z,24.25
2022-09-14T14:00:16.430Z,24.31
2022-09-14T14:03:24.541Z,24.46
2022-09-14T14:06:28.993Z,24.64
2022-09-14T14:09:40.525Z,24.73
2022-09-14T14:12:45.185Z,24.80
2022-09-14T14:15:50.486Z,24.75
2022-09-14T14:18:56.097Z,24.69
2022-09-14T14:22:11.747Z,24.55
2022-09-14T14:25:27.729Z,24.40
2022-09-14T14:28:30.425Z,24.31
2022-09-14T14:31:33.774Z,24.32
2022-09-14T14:34:35.841Z,24.05
2022-09-14T14:37:39.326Z,24.00
2022-09-14T14:40:43.245Z,23.91
2022-09-14T14:43:45.312Z,23.89
2022-09-14T14:46:51.021Z,23.74
2022-09-14T14:49:53.343Z,23.74
2022-09-14T14:52:55.334Z,23.68
2022-09-14T14:55:59.937Z,23.69
2022-09-14T14:59:02.485Z,23.67
2022-09-14T15:02:05.713Z,23.68
2022-09-14T15:05:08.801Z,23.61
2022-09-14T15:08:10.908Z,23.63
2022-09-14T15:11:16.653Z,23.62
2022-09-14T15:14:21.332Z,23.54
2022-09-14T15:17:27.342Z,23.45
2022-09-14T15:20:29.211Z,23.45
2022-09-14T15:23:31.314Z,23.53
2022-09-14T15:26:35.642Z,23.42
2022-09-14T15:29:37.587Z,23.32
2022-09-14T15:32:41.484Z,23.27
2022-09-14T15:35:43.306Z,23.21
2022-09-14T15:38:45.727Z,23.21
2022-09-14T15:41:49.170Z,23.10
2022-09-14T15:44:51.135Z,22.99
2022-09-14T15:47:53.140Z,22.96
2022-09-14T15:50:54.961Z,23.04
2022-09-14T15:53:57.724Z,23.11
2022-09-14T15:57:04.780Z,23.15
2022-09-14T16:00:07.942Z,23.14
2022-09-14T16:03:10.390Z,23.12
2022-09-14T16:06:13.249Z,23.11
2022-09-14T16:09:16.233Z,23.09
2022-09-14T16:12:19.474Z,23.00
2022-09-14T16:15:22.768Z,22.95
2022-09-14T16:18:25.587Z,22.90
2022-09-14T16:21:29.769Z,22.62
2022-09-14T16:24:32.069Z,22.60
2022-09-14T16:27:35.743Z,22.66
2022-09-14T16:30:38.534Z,22.61
2022-09-14T16:33:47.720Z,22.63
2022-09-14T16:36:50.841Z,22.62
2022-09-14T16:39:52.602Z,22.59
2022-09-14T16:42:55.845Z,22.49
2022-09-14T16:46:06.323Z,22.41
2022-09-14T16:49:08.442Z,22.20
2022-09-14T16:52:11.925Z,22.04
2022-09-14T16:55:13.983Z,21.93
2022-09-14T16:58:17.121Z,21.70
2022-09-14T17:01:19.908Z,21.25
2022-09-14T17:04:24.237Z,20.89
2022-09-14T17:07:26.385Z,20.74
2022-09-14T17:10:28.223Z,20.53
2022-09-14T17:13:32.083Z,20.43
2022-09-14T17:16:34.728Z,20.30
2022-09-14T17:19:39.425Z,20.09
2022-09-14T17:22:46.508Z,20.07
2022-09-14T17:25:51.057Z,19.99
2022-09-14T17:28:56.705Z,19.99
2022-09-14T17:31:59.505Z,19.76
2022-09-14T17:35:01.646Z,19.68
2022-09-14T17:38:03.532Z,19.54
2022-09-14T17:41:06.480Z,19.42
2022-09-14T17:44:12.258Z,19.26
2022-09-14T17:47:15.957Z,19.20
2022-09-14T17:50:18.321Z,19.19
2022-09-14T17:53:22.355Z,19.13
2022-09-14T17:56:26.644Z,19.17
2022-09-14T17:59:30.185Z,19.18
2022-09-14T18:02:32.251Z,19.25
2022-09-14T18:05:34.033Z,19.35
2022-09-14T18:08:38.182Z,19.47
2022-09-14T18:11:40.612Z,19.26
2022-09-14T18:14:44.190Z,18.96
2022-09-14T18:17:46.337Z,18.83
2022-09-14T18:20:49.737Z,18.77
2022-09-14T18:23:53.351Z,18.73
2022-09-14T18:26:55.503Z,18.74
2022-09-14T18:30:00.193Z,18.79
2022-09-14T18:33:02.225Z,18.79
2022-09-14T18:36:06.391Z,18.77
2022-09-14T18:39:10.617Z,18.83
2022-09-14T18:42:16.369Z,18.90
2022-09-14T18:45:20.994Z,19.00
2022-09-14T18:48:24.686Z,19.02
2022-09-14T18:51:29.170Z,18.94
2022-09-14T18:54:31.843Z,18.75
2022-09-14T18:57:34.534Z,18.61
2022-09-14T19:00:43.200Z,18.57
2022-09-14T19:03:46.501Z,18.60
2022-09-14T19:06:51.744Z,18.51
2022-09-14T19:09:56.208Z,18.56
2022-09-14T19:12:58.612Z,18.67
2022-09-14T19:16:06.501Z,18.58
2022-09-14T19:19:12.083Z,18.58
2022-09-14T19:22:14.352Z,18.66
2022-09-14T19:25:17.794Z,18.53
2022-09-14T19:28:21.562Z,18.58
2022-09-14T19:31:25.072Z,18.76
2022-09-14T19:34:29.552Z,18.84
2022-09-14T19:37:32.493Z,18.87
2022-09-14T19:40:34.935Z,18.94
2022-09-14T19:43:37.387Z,18.88
2022-09-14T19:46:41.575Z,18.97
2022-09-14T19:49:43.655Z,19.03
2022-09-14T19:52:55.188Z,19.12
2022-09-14T19:56:03.287Z,19.20
2022-09-14T19:59:05.756Z,19.18
2022-09-14T20:02:10.808Z,18.97
2022-09-14T20:05:15.440Z,18.83
2022-09-14T20:08:17.919Z,18.83
2022-09-14T20:11:21.017Z,18.75
2022-09-14T20:14:24.896Z,18.59
2022-09-14T20:17:31.301Z,18.72
2022-09-14T20:20:36.087Z,18.54
2022-09-14T20:23:48.642Z,18.59
2022-09-14T20:27:00.764Z,18.50
2022-09-14T20:30:03.548Z,18.56
2022-09-14T20:33:07.200Z,18.61
2022-09-14T20:36:10.733Z,18.56
2022-09-14T20:39:15.284Z,18.57
2022-09-14T20:42:16.990Z,18.47
2022-09-14T20:45:20.595Z,18.50
2022-09-14T20:48:26.231Z,18.58
2022-09-14T20:51:30.389Z,18.47
2022-09-14T20:54:32.580Z,18.43
2022-09-14T20:57:34.480Z,18.52
2022-09-14T21:00:36.425Z,18.46
2022-09-14T21:03:42.540Z,18.44
2022-09-14T21:06:45.511Z,18.37
2022-09-14T21:09:47.171Z,18.44
2022-09-14T21:12:49.746Z,18.45
2022-09-14T21:15:53.577Z,18.50
2022-09-14T21:19:00.178Z,18.50
2022-09-14T21:22:02.313Z,18.39
2022-09-14T21:25:07.325Z,18.42
2022-09-14T21:28:09.032Z,18.53
2022-09-14T21:31:14.375Z,18.50
2022-09-14T21:34:18.647Z,18.55
2022-09-14T21:37:22.704Z,18.56
2022-09-14T21:40:25.375Z,18.52
2022-09-14T21:43:29.012Z,18.57
2022-09-14T21:46:31.862Z,18.59
2022-09-14T21:49:35.563Z,18.52
2022-09-14T21:52:40.957Z,18.52
2022-09-14T21:55:43.965Z,18.57
2022-09-14T21:58:49.919Z,18.48
2022-09-14T22:01:52.321Z,18.41
2022-09-14T22:04:56.439Z,18.37
2022-09-14T22:08:00.419Z,18.25
2022-09-14T22:11:04.113Z,18.31
2022-09-14T22:14:08.321Z,18.25
2022-09-14T22:17:12.124Z,18.21
2022-09-14T22:20:17.167Z,18.22
2022-09-14T22:23:18.942Z,18.11
2022-09-14T22:26:21.508Z,18.15
2022-09-14T22:29:24.125Z,18.05
2022-09-14T22:32:27.895Z,18.05
2022-09-14T22:35:32.870Z,18.07
2022-09-14T22:38:35.105Z,17.95
2022-09-14T22:41:37.386Z,17.98
2022-09-14T22:44:39.254Z,17.96
2022-09-14T22:47:42.307Z,17.95
2022-09-14T22:50:46.982Z,18.04
2022-09-14T22:53:48.743Z,18.00
2022-09-14T22:56:51.365Z,17.89
2022-09-14T22:59:54.405Z,17.91
2022-09-14T23:02:59.970Z,17.95
2022-09-14T23:06:04.290Z,17.92
2022-09-14T23:09:08.884Z,17.89
2022-09-14T23:12:12.253Z,17.88
2022-09-14T23:15:14.265Z,17.84
2022-09-14T23:18:16.056Z,17.79
2022-09-14T23:21:21.594Z,17.88
2022-09-14T23:24:23.909Z,17.90
2022-09-14T23:27:28.366Z,17.90
2022-09-14T23:30:31.795Z,17.86
2022-09-14T23:33:33.657Z,17.96
2022-09-14T23:36:38.614Z,17.89
2022-09-14T23:39:40.600Z,17.86
2022-09-14T23:42:43.795Z,17.90
2022-09-14T23:45:47.380Z,17.79
2022-09-14T23:48:49.681Z,17.78
2022-09-14T23:51:53.909Z,17.79
2022-09-14T23:54:56.694Z,17.73
2022-09-14T23:57:59.589Z,17.60
